TAP1212 LPMA-LPPT
Flight info
| Callsign | TAP1212 |
|---|---|
| Flight time | N/A |
| Altitude | 40000 |
| Route | DEGUN DCT NARTA DCT ESUTI |
| Aircraft | A333/H-SDE3GHIJ2J3J5M1RVWXY/LB2D1 |
Departure
| Time | 2026-05-06 19:51 |
|---|---|
| Airport | Cristiano Ronaldo International Airport (LPMA) |
Arrival
| Time | N/A |
|---|---|
| Airport | Lisbon Humberto Delgado Airport (LPPT) |
| Time | Latitude | Longitude | Altitude | Speed | Heading |
|---|---|---|---|---|---|
| 2026-05-06 19:27 | 32.69591 | -16.77362 | 180 ft | 0 kts | 137° |
| 2026-05-06 19:40 | 32.69585 | -16.77363 | 180 ft | 0 kts | 138° |
| 2026-05-06 19:44 | 32.69591 | -16.77370 | 180 ft | 4 kts | 138° |
| 2026-05-06 19:44 | 32.69612 | -16.77391 | 180 ft | 4 kts | 138° |
| 2026-05-06 19:45 | 32.69628 | -16.77407 | 180 ft | 4 kts | 161° |
| 2026-05-06 19:45 | 32.69651 | -16.77406 | 180 ft | 4 kts | 214° |
| 2026-05-06 19:45 | 32.69669 | -16.77386 | 180 ft | 4 kts | 226° |
| 2026-05-06 19:45 | 32.69681 | -16.77371 | 180 ft | 0 kts | 226° |
| 2026-05-06 19:48 | 32.69662 | -16.77395 | 180 ft | 10 kts | 226° |
| 2026-05-06 19:48 | 32.69596 | -16.77478 | 180 ft | 16 kts | 226° |
| 2026-05-06 19:48 | 32.69502 | -16.77595 | 180 ft | 21 kts | 226° |
| 2026-05-06 19:48 | 32.69397 | -16.77728 | 180 ft | 23 kts | 227° |
| 2026-05-06 19:49 | 32.69299 | -16.77875 | 180 ft | 20 kts | 255° |
| 2026-05-06 19:49 | 32.69272 | -16.78044 | 180 ft | 22 kts | 245° |
| 2026-05-06 19:49 | 32.69160 | -16.78184 | 180 ft | 26 kts | 224° |
| 2026-05-06 19:49 | 32.69021 | -16.78345 | 180 ft | 27 kts | 221° |
| 2026-05-06 19:50 | 32.68901 | -16.78414 | 180 ft | 12 kts | 210° |
| 2026-05-06 19:50 | 32.68890 | -16.78455 | 180 ft | 2 kts | 304° |
| 2026-05-06 19:50 | 32.68917 | -16.78449 | 180 ft | 8 kts | 20° |
| 2026-05-06 19:50 | 32.68990 | -16.78382 | 180 ft | 18 kts | 44° |
| 2026-05-06 19:51 | 32.69163 | -16.78180 | 180 ft | 64 kts | 45° |
| 2026-05-06 19:51 | 32.69644 | -16.77618 | 180 ft | 128 kts | 44° |
| 2026-05-06 19:51 | 32.70374 | -16.76746 | 467 ft | 160 kts | 43° |
| 2026-05-06 19:51 | 32.70911 | -16.75555 | 1271 ft | 171 kts | 83° |
| 2026-05-06 19:52 | 32.70496 | -16.74256 | 2169 ft | 180 kts | 132° |
| 2026-05-06 19:52 | 32.69369 | -16.73410 | 2606 ft | 209 kts | 150° |
| 2026-05-06 19:52 | 32.68256 | -16.72139 | 2869 ft | 242 kts | 115° |
| 2026-05-06 19:52 | 32.67860 | -16.70124 | 3416 ft | 259 kts | 95° |
| 2026-05-06 19:53 | 32.67655 | -16.67972 | 4248 ft | 265 kts | 95° |
| 2026-05-06 19:53 | 32.67344 | -16.65791 | 5125 ft | 272 kts | 98° |
| 2026-05-06 19:53 | 32.66929 | -16.63576 | 6001 ft | 278 kts | 102° |
| 2026-05-06 19:53 | 32.66440 | -16.61323 | 6859 ft | 285 kts | 103° |
| 2026-05-06 19:54 | 32.65936 | -16.59045 | 7777 ft | 287 kts | 99° |
| 2026-05-06 19:54 | 32.65736 | -16.56682 | 8654 ft | 289 kts | 84° |
| 2026-05-06 19:54 | 32.66099 | -16.54340 | 9547 ft | 289 kts | 67° |
| 2026-05-06 19:54 | 32.67029 | -16.52230 | 10373 ft | 290 kts | 51° |
| 2026-05-06 19:55 | 32.68381 | -16.50409 | 10745 ft | 308 kts | 41° |
| 2026-05-06 19:55 | 32.69993 | -16.48602 | 11100 ft | 329 kts | 40° |
| 2026-05-06 19:55 | 32.71704 | -16.46713 | 11711 ft | 339 kts | 40° |
| 2026-05-06 19:55 | 32.73435 | -16.44777 | 12492 ft | 345 kts | 40° |
| 2026-05-06 19:56 | 32.75184 | -16.42803 | 13305 ft | 349 kts | 40° |
| 2026-05-06 19:56 | 32.76956 | -16.40792 | 14071 ft | 354 kts | 40° |
| 2026-05-06 19:56 | 32.78751 | -16.38747 | 14783 ft | 358 kts | 40° |
| 2026-05-06 19:56 | 32.80557 | -16.36684 | 15530 ft | 361 kts | 40° |
| 2026-05-06 19:57 | 32.82354 | -16.34629 | 16277 ft | 364 kts | 40° |
| 2026-05-06 19:57 | 32.84193 | -16.32525 | 16956 ft | 369 kts | 40° |
| 2026-05-06 19:57 | 32.86054 | -16.30393 | 17670 ft | 373 kts | 39° |
| 2026-05-06 19:57 | 32.87929 | -16.28244 | 18404 ft | 376 kts | 39° |
| 2026-05-06 19:58 | 32.89825 | -16.26069 | 19042 ft | 378 kts | 39° |
| 2026-05-06 19:58 | 32.91724 | -16.23888 | 19696 ft | 380 kts | 39° |
| 2026-05-06 19:58 | 32.93630 | -16.21699 | 20361 ft | 381 kts | 39° |
| 2026-05-06 19:58 | 32.95552 | -16.19489 | 20997 ft | 383 kts | 39° |
| 2026-05-06 19:59 | 32.97474 | -16.17280 | 21633 ft | 385 kts | 38° |
| 2026-05-06 19:59 | 32.99379 | -16.15088 | 22258 ft | 387 kts | 38° |
| 2026-05-06 19:59 | 33.01325 | -16.12847 | 22862 ft | 389 kts | 38° |
| 2026-05-06 19:59 | 33.03280 | -16.10594 | 23483 ft | 391 kts | 38° |
| 2026-05-06 20:00 | 33.05239 | -16.08337 | 23983 ft | 393 kts | 38° |
| 2026-05-06 20:00 | 33.07214 | -16.06060 | 24420 ft | 397 kts | 38° |
| 2026-05-06 20:00 | 33.09208 | -16.03759 | 24860 ft | 400 kts | 38° |
| 2026-05-06 20:00 | 33.11209 | -16.01447 | 25305 ft | 402 kts | 38° |
| 2026-05-06 20:01 | 33.13225 | -15.99117 | 25769 ft | 404 kts | 38° |
| 2026-05-06 20:01 | 33.15221 | -15.96807 | 26244 ft | 406 kts | 38° |
| 2026-05-06 20:01 | 33.17253 | -15.94455 | 26680 ft | 408 kts | 38° |
| 2026-05-06 20:01 | 33.19305 | -15.92078 | 27099 ft | 411 kts | 38° |
| 2026-05-06 20:02 | 33.21368 | -15.89688 | 27516 ft | 414 kts | 38° |
| 2026-05-06 20:02 | 33.23443 | -15.87282 | 27940 ft | 417 kts | 38° |
| 2026-05-06 20:02 | 33.25531 | -15.84858 | 28364 ft | 420 kts | 38° |
| 2026-05-06 20:02 | 33.27634 | -15.82416 | 28774 ft | 422 kts | 37° |
| 2026-05-06 20:03 | 33.29746 | -15.79960 | 29168 ft | 425 kts | 38° |
| 2026-05-06 20:03 | 33.31846 | -15.77517 | 29562 ft | 427 kts | 37° |
| 2026-05-06 20:03 | 33.33985 | -15.75028 | 29976 ft | 430 kts | 38° |
| 2026-05-06 20:03 | 33.36133 | -15.72526 | 30343 ft | 433 kts | 37° |
| 2026-05-06 20:04 | 33.38296 | -15.70005 | 30667 ft | 435 kts | 37° |
| 2026-05-06 20:04 | 33.40471 | -15.67467 | 31013 ft | 438 kts | 37° |
| 2026-05-06 20:04 | 33.42667 | -15.64923 | 31339 ft | 439 kts | 37° |
| 2026-05-06 20:04 | 33.44887 | -15.62401 | 31704 ft | 441 kts | 36° |
| 2026-05-06 20:05 | 33.47132 | -15.59879 | 32022 ft | 444 kts | 36° |
| 2026-05-06 20:05 | 33.49388 | -15.57352 | 32424 ft | 444 kts | 36° |
| 2026-05-06 20:05 | 33.51641 | -15.54825 | 32906 ft | 442 kts | 36° |
| 2026-05-06 20:05 | 33.53881 | -15.52308 | 33377 ft | 441 kts | 36° |
| 2026-05-06 20:06 | 33.56114 | -15.49794 | 33830 ft | 440 kts | 36° |
| 2026-05-06 20:06 | 33.58340 | -15.47285 | 34250 ft | 439 kts | 36° |
| 2026-05-06 20:06 | 33.60566 | -15.44773 | 34588 ft | 439 kts | 36° |
| 2026-05-06 20:06 | 33.62792 | -15.42260 | 34902 ft | 439 kts | 36° |
| 2026-05-06 20:07 | 33.64995 | -15.39771 | 35194 ft | 440 kts | 36° |
| 2026-05-06 20:07 | 33.67223 | -15.37251 | 35509 ft | 440 kts | 35° |
| 2026-05-06 20:07 | 33.69456 | -15.34723 | 35809 ft | 441 kts | 35° |
| 2026-05-06 20:07 | 33.71687 | -15.32195 | 36108 ft | 441 kts | 35° |
| 2026-05-06 20:08 | 33.73920 | -15.29663 | 36399 ft | 441 kts | 35° |
| 2026-05-06 20:08 | 33.76153 | -15.27129 | 36677 ft | 442 kts | 35° |
| 2026-05-06 20:08 | 33.78389 | -15.24590 | 36982 ft | 442 kts | 35° |
| 2026-05-06 20:08 | 33.80625 | -15.22048 | 37244 ft | 443 kts | 35° |
| 2026-05-06 20:09 | 33.82869 | -15.19497 | 37496 ft | 444 kts | 35° |
| 2026-05-06 20:09 | 33.85115 | -15.16940 | 37790 ft | 444 kts | 35° |
| 2026-05-06 20:09 | 33.87360 | -15.14383 | 38067 ft | 444 kts | 34° |
| 2026-05-06 20:09 | 33.89577 | -15.11855 | 38332 ft | 444 kts | 34° |
| 2026-05-06 20:10 | 33.91832 | -15.09282 | 38595 ft | 445 kts | 34° |
| 2026-05-06 20:10 | 33.94084 | -15.06711 | 38847 ft | 445 kts | 34° |
| 2026-05-06 20:10 | 33.96331 | -15.04143 | 39039 ft | 445 kts | 35° |
| 2026-05-06 20:10 | 33.98581 | -15.01571 | 39230 ft | 446 kts | 35° |
| 2026-05-06 20:11 | 34.00805 | -14.99026 | 39396 ft | 447 kts | 35° |
| 2026-05-06 20:11 | 34.03059 | -14.96445 | 39572 ft | 447 kts | 35° |
| 2026-05-06 20:11 | 34.05315 | -14.93860 | 39773 ft | 448 kts | 36° |
| 2026-05-06 20:11 | 34.07575 | -14.91268 | 39957 ft | 449 kts | 36° |
| 2026-05-06 20:12 | 34.09851 | -14.88656 | 40065 ft | 451 kts | 36° |
| 2026-05-06 20:12 | 34.12137 | -14.86033 | 40100 ft | 455 kts | 36° |
| 2026-05-06 20:12 | 34.16733 | -14.80747 | 40086 ft | 456 kts | 36° |
| 2026-05-06 20:13 | 34.21293 | -14.75489 | 40102 ft | 455 kts | 36° |
| 2026-05-06 20:13 | 34.25876 | -14.70198 | 40099 ft | 455 kts | 36° |
| 2026-05-06 20:14 | 34.30455 | -14.64906 | 40081 ft | 455 kts | 36° |
| 2026-05-06 20:14 | 34.35036 | -14.59604 | 40091 ft | 455 kts | 36° |
| 2026-05-06 20:15 | 34.39616 | -14.54295 | 40096 ft | 456 kts | 36° |
| 2026-05-06 20:15 | 34.44178 | -14.48998 | 40087 ft | 457 kts | 36° |
| 2026-05-06 20:16 | 34.48777 | -14.43648 | 40086 ft | 458 kts | 36° |
| 2026-05-06 20:16 | 34.53370 | -14.38296 | 40086 ft | 458 kts | 36° |
| 2026-05-06 20:17 | 34.57962 | -14.32938 | 40083 ft | 458 kts | 36° |
| 2026-05-06 20:17 | 34.62553 | -14.27574 | 40083 ft | 458 kts | 36° |
| 2026-05-06 20:18 | 34.67122 | -14.22250 | 40095 ft | 457 kts | 35° |
| 2026-05-06 20:18 | 34.71803 | -14.17015 | 40078 ft | 457 kts | 35° |
| 2026-05-06 20:19 | 34.76487 | -14.11771 | 40077 ft | 458 kts | 35° |
| 2026-05-06 20:19 | 34.81165 | -14.06510 | 40078 ft | 458 kts | 35° |
| 2026-05-06 20:20 | 34.85841 | -14.01237 | 40075 ft | 458 kts | 35° |
| 2026-05-06 20:20 | 34.90521 | -13.95949 | 40075 ft | 458 kts | 35° |
| 2026-05-06 20:21 | 34.95160 | -13.90698 | 40097 ft | 458 kts | 35° |
| 2026-05-06 20:21 | 34.99848 | -13.85384 | 40082 ft | 459 kts | 36° |
| 2026-05-06 20:22 | 35.04494 | -13.80107 | 40071 ft | 458 kts | 36° |
| 2026-05-06 20:22 | 35.09161 | -13.74799 | 40072 ft | 458 kts | 36° |
| 2026-05-06 20:23 | 35.13821 | -13.69491 | 40066 ft | 458 kts | 36° |
| 2026-05-06 20:23 | 35.18484 | -13.64169 | 40068 ft | 458 kts | 36° |
| 2026-05-06 20:24 | 35.23149 | -13.58838 | 40064 ft | 458 kts | 36° |
| 2026-05-06 20:24 | 35.27775 | -13.53542 | 40066 ft | 458 kts | 36° |
| 2026-05-06 20:25 | 35.32437 | -13.48195 | 40075 ft | 458 kts | 36° |
| 2026-05-06 20:25 | 35.37080 | -13.42862 | 40065 ft | 457 kts | 36° |
| 2026-05-06 20:26 | 35.41714 | -13.37530 | 40069 ft | 456 kts | 36° |
| 2026-05-06 20:26 | 35.46313 | -13.32232 | 40063 ft | 456 kts | 36° |
| 2026-05-06 20:27 | 35.50945 | -13.26885 | 40069 ft | 456 kts | 36° |
| 2026-05-06 20:27 | 35.55571 | -13.21536 | 40064 ft | 457 kts | 36° |
| 2026-05-06 20:28 | 35.60193 | -13.16184 | 40058 ft | 457 kts | 36° |
| 2026-05-06 20:28 | 35.64786 | -13.10856 | 40064 ft | 457 kts | 37° |
| 2026-05-06 20:29 | 35.69415 | -13.05476 | 40058 ft | 456 kts | 37° |
| 2026-05-06 20:29 | 35.74028 | -13.00107 | 40059 ft | 456 kts | 37° |
| 2026-05-06 20:30 | 35.80943 | -12.92041 | 40071 ft | 456 kts | 37° |
| 2026-05-06 20:31 | 35.85520 | -12.86691 | 40056 ft | 456 kts | 37° |
| 2026-05-06 20:31 | 35.90130 | -12.81294 | 40056 ft | 456 kts | 37° |
| 2026-05-06 20:32 | 35.94735 | -12.75893 | 40063 ft | 457 kts | 38° |
| 2026-05-06 20:32 | 35.98567 | -12.71392 | 40054 ft | 457 kts | 38° |
| 2026-05-06 20:33 | 36.03177 | -12.65968 | 40051 ft | 457 kts | 38° |
| 2026-05-06 20:33 | 36.08534 | -12.59654 | 40068 ft | 458 kts | 38° |
| 2026-05-06 20:34 | 36.12371 | -12.55124 | 40051 ft | 458 kts | 38° |
| 2026-05-06 20:34 | 36.16975 | -12.49679 | 40050 ft | 458 kts | 38° |
| 2026-05-06 20:35 | 36.21578 | -12.44227 | 40050 ft | 458 kts | 38° |
| 2026-05-06 20:35 | 36.26182 | -12.38764 | 40058 ft | 458 kts | 38° |
| 2026-05-06 20:36 | 36.30801 | -12.33275 | 40046 ft | 460 kts | 38° |
| 2026-05-06 20:36 | 36.35397 | -12.27802 | 40045 ft | 460 kts | 38° |
| 2026-05-06 20:37 | 36.38395 | -12.24227 | 40043 ft | 460 kts | 38° |
| 2026-05-06 20:37 | 36.41134 | -12.20955 | 40043 ft | 453 kts | 38° |
| 2026-05-06 20:37 | 36.43374 | -12.18273 | 40048 ft | 442 kts | 38° |
| 2026-05-06 20:38 | 36.45606 | -12.15605 | 40043 ft | 447 kts | 38° |
| 2026-05-06 20:38 | 36.50122 | -12.10209 | 40040 ft | 458 kts | 38° |
| 2026-05-06 20:39 | 36.54763 | -12.04646 | 40045 ft | 468 kts | 39° |
| 2026-05-06 20:39 | 36.59496 | -11.98961 | 40042 ft | 478 kts | 39° |
| 2026-05-06 20:40 | 36.64328 | -11.93143 | 40052 ft | 487 kts | 40° |
| 2026-05-06 20:40 | 36.69183 | -11.87285 | 40039 ft | 489 kts | 40° |
| 2026-05-06 20:41 | 36.74074 | -11.81373 | 40040 ft | 489 kts | 40° |
| 2026-05-06 20:41 | 36.78958 | -11.75460 | 40040 ft | 489 kts | 40° |
| 2026-05-06 20:42 | 36.83844 | -11.69534 | 40032 ft | 489 kts | 40° |
| 2026-05-06 20:42 | 36.88733 | -11.63594 | 40034 ft | 489 kts | 40° |
| 2026-05-06 20:43 | 36.93585 | -11.57688 | 40033 ft | 489 kts | 40° |
| 2026-05-06 20:43 | 36.98457 | -11.51748 | 40033 ft | 489 kts | 40° |
| 2026-05-06 20:44 | 37.03324 | -11.45801 | 40035 ft | 487 kts | 40° |
| 2026-05-06 20:44 | 37.05733 | -11.42850 | 39900 ft | 478 kts | 40° |
| 2026-05-06 20:44 | 37.08092 | -11.39958 | 39674 ft | 470 kts | 40° |
| 2026-05-06 20:44 | 37.10412 | -11.37112 | 39448 ft | 463 kts | 39° |
| 2026-05-06 20:45 | 37.12692 | -11.34314 | 39221 ft | 456 kts | 39° |
| 2026-05-06 20:45 | 37.14953 | -11.31538 | 39010 ft | 453 kts | 40° |
| 2026-05-06 20:45 | 37.17208 | -11.28771 | 38790 ft | 456 kts | 40° |
| 2026-05-06 20:45 | 37.19459 | -11.26006 | 38557 ft | 458 kts | 40° |
| 2026-05-06 20:46 | 37.21741 | -11.23197 | 38286 ft | 460 kts | 40° |
| 2026-05-06 20:46 | 37.24028 | -11.20380 | 38024 ft | 461 kts | 40° |
| 2026-05-06 20:46 | 37.26317 | -11.17557 | 37742 ft | 462 kts | 40° |
| 2026-05-06 20:46 | 37.28610 | -11.14725 | 37459 ft | 458 kts | 40° |
| 2026-05-06 20:47 | 37.30860 | -11.11939 | 37191 ft | 451 kts | 40° |
| 2026-05-06 20:47 | 37.33033 | -11.09116 | 36713 ft | 450 kts | 43° |
| 2026-05-06 20:47 | 37.35141 | -11.06204 | 36079 ft | 451 kts | 43° |
| 2026-05-06 20:47 | 37.37229 | -11.03248 | 35455 ft | 453 kts | 43° |
| 2026-05-06 20:48 | 37.39354 | -11.00295 | 34579 ft | 460 kts | 43° |
| 2026-05-06 20:48 | 37.41510 | -10.97297 | 33986 ft | 462 kts | 43° |
| 2026-05-06 20:48 | 37.43628 | -10.94324 | 33364 ft | 461 kts | 43° |
| 2026-05-06 20:48 | 37.45792 | -10.91377 | 32865 ft | 456 kts | 40° |
| 2026-05-06 20:49 | 37.48069 | -10.88600 | 32255 ft | 455 kts | 39° |
| 2026-05-06 20:49 | 37.50308 | -10.85788 | 31839 ft | 451 kts | 40° |
| 2026-05-06 20:49 | 37.52499 | -10.83000 | 31417 ft | 445 kts | 39° |
| 2026-05-06 20:49 | 37.54764 | -10.80361 | 30797 ft | 443 kts | 35° |
| 2026-05-06 20:50 | 37.57136 | -10.77877 | 30238 ft | 442 kts | 34° |
| 2026-05-06 20:50 | 37.59516 | -10.75461 | 29755 ft | 436 kts | 33° |
| 2026-05-06 20:50 | 37.61882 | -10.73113 | 29528 ft | 426 kts | 33° |
| 2026-05-06 20:50 | 37.64160 | -10.70744 | 29063 ft | 423 kts | 36° |
| 2026-05-06 20:51 | 37.66408 | -10.68352 | 28373 ft | 424 kts | 35° |
| 2026-05-06 20:51 | 37.68692 | -10.65963 | 27506 ft | 429 kts | 34° |
| 2026-05-06 20:51 | 37.71028 | -10.63596 | 26714 ft | 431 kts | 34° |
| 2026-05-06 20:51 | 37.73319 | -10.61250 | 26291 ft | 423 kts | 36° |
| 2026-05-06 20:52 | 37.75511 | -10.58920 | 26391 ft | 401 kts | 36° |
| 2026-05-06 20:52 | 37.77573 | -10.56640 | 26281 ft | 388 kts | 39° |
| 2026-05-06 20:52 | 37.79514 | -10.54284 | 25853 ft | 386 kts | 43° |
| 2026-05-06 20:52 | 37.81319 | -10.51745 | 25147 ft | 393 kts | 49° |